createdAt,value
2023-05-05T00:00:21.415Z,3.60
2023-05-05T00:01:44.265Z,3.80
2023-05-05T00:02:48.170Z,3.40
2023-05-05T00:03:51.136Z,3.60
2023-05-05T00:04:53.996Z,3.90
2023-05-05T00:05:57.466Z,3.40
2023-05-05T00:07:00.536Z,4.10
2023-05-05T00:08:03.563Z,3.20
2023-05-05T00:09:07.113Z,3.80
2023-05-05T00:10:10.601Z,3.70
2023-05-05T00:11:13.463Z,4.10
2023-05-05T00:12:16.213Z,4.20
2023-05-05T00:13:20.698Z,3.90
2023-05-05T00:14:23.582Z,3.80
2023-05-05T00:15:27.450Z,3.90
2023-05-05T00:16:30.490Z,4.00
2023-05-05T00:17:33.441Z,4.40
2023-05-05T00:18:36.300Z,3.80
2023-05-05T00:19:39.242Z,3.90
2023-05-05T00:20:42.879Z,4.00
2023-05-05T00:21:45.734Z,3.90
2023-05-05T00:22:48.780Z,3.80
2023-05-05T00:23:51.811Z,4.10
2023-05-05T00:24:54.754Z,4.30
2023-05-05T00:25:57.543Z,4.30
2023-05-05T00:27:02.167Z,4.20
2023-05-05T00:28:05.316Z,3.80
2023-05-05T00:29:08.320Z,4.00
2023-05-05T00:30:11.596Z,4.20
2023-05-05T00:31:17.485Z,3.90
2023-05-05T00:32:20.414Z,3.40
2023-05-05T00:33:23.641Z,4.40
2023-05-05T00:34:26.484Z,3.60
2023-05-05T00:35:29.397Z,3.30
2023-05-05T00:36:32.250Z,3.20
2023-05-05T00:37:35.045Z,3.50
2023-05-05T00:38:38.200Z,3.30
2023-05-05T00:39:41.058Z,3.20
2023-05-05T00:40:44.033Z,3.10
2023-05-05T00:41:46.909Z,3.00
2023-05-05T00:42:50.913Z,3.20
2023-05-05T00:43:53.763Z,3.40
2023-05-05T00:44:57.476Z,3.90
2023-05-05T00:46:04.194Z,2.70
2023-05-05T00:47:09.320Z,3.20
2023-05-05T00:48:12.267Z,2.80
2023-05-05T00:49:16.462Z,3.00
2023-05-05T00:50:30.540Z,3.00
2023-05-05T00:51:35.320Z,2.60
2023-05-05T00:52:39.017Z,3.00
2023-05-05T00:53:44.956Z,3.00
2023-05-05T00:54:48.065Z,3.30
2023-05-05T00:55:51.450Z,3.10
2023-05-05T00:56:54.433Z,2.70
2023-05-05T00:57:58.942Z,3.10
2023-05-05T00:59:02.675Z,3.10
2023-05-05T01:00:06.421Z,3.00
2023-05-05T01:01:11.407Z,2.60
2023-05-05T01:02:14.481Z,3.20
2023-05-05T01:03:17.462Z,2.70
2023-05-05T01:04:20.354Z,3.00
2023-05-05T01:05:27.046Z,2.10
2023-05-05T01:07:04.043Z,2.90
2023-05-05T01:08:28.244Z,2.90
2023-05-05T01:09:42.908Z,2.50
2023-05-05T01:10:52.473Z,2.90
2023-05-05T01:12:05.309Z,2.90
2023-05-05T01:13:24.888Z,3.00
2023-05-05T01:14:39.974Z,2.50
2023-05-05T01:15:50.629Z,2.90
2023-05-05T01:18:09.803Z,2.90
2023-05-05T01:19:36.105Z,2.80
2023-05-05T01:20:49.447Z,2.80
2023-05-05T01:21:57.202Z,2.50
2023-05-05T01:23:05.920Z,2.60
2023-05-05T01:24:46.957Z,4.50
2023-05-05T01:26:16.274Z,3.20
2023-05-05T01:27:46.678Z,3.00
2023-05-05T01:29:14.784Z,3.40
2023-05-05T01:32:02.464Z,3.00
2023-05-05T01:33:11.109Z,2.40
2023-05-05T01:34:17.150Z,2.40
2023-05-05T01:35:27.237Z,2.60
2023-05-05T01:36:37.123Z,2.20
2023-05-05T01:37:46.003Z,2.90
2023-05-05T01:38:55.814Z,2.40
2023-05-05T01:40:03.829Z,2.60
2023-05-05T01:41:19.638Z,2.60
2023-05-05T01:42:25.257Z,2.90
2023-05-05T01:43:32.435Z,2.60
2023-05-05T01:44:37.779Z,2.20
2023-05-05T01:45:43.877Z,2.60
2023-05-05T01:46:48.876Z,2.60
2023-05-05T01:47:52.619Z,2.20
2023-05-05T01:48:56.783Z,2.60
2023-05-05T01:50:00.451Z,2.70
2023-05-05T01:51:05.289Z,2.40
2023-05-05T01:52:09.989Z,2.80
2023-05-05T01:53:13.419Z,2.80
2023-05-05T01:54:18.723Z,2.60
2023-05-05T01:55:25.823Z,2.70
2023-05-05T01:56:31.574Z,2.40
2023-05-05T01:57:36.818Z,2.60
2023-05-05T01:58:43.884Z,2.50
2023-05-05T01:59:46.996Z,2.70
2023-05-05T02:00:51.826Z,2.10
2023-05-05T02:01:57.452Z,2.60
2023-05-05T02:03:05.160Z,2.40
2023-05-05T02:04:11.932Z,2.50
2023-05-05T02:05:17.124Z,2.90
2023-05-05T02:06:21.967Z,2.40
2023-05-05T02:07:26.315Z,2.50
2023-05-05T02:08:31.420Z,2.70
2023-05-05T02:09:34.604Z,2.60
2023-05-05T02:10:40.988Z,3.10
2023-05-05T02:11:44.095Z,2.60
2023-05-05T02:12:47.846Z,3.00
2023-05-05T02:13:52.322Z,2.30
2023-05-05T02:14:56.297Z,2.80
2023-05-05T02:16:00.432Z,2.70
2023-05-05T02:17:04.080Z,2.60
2023-05-05T02:18:07.591Z,2.60
2023-05-05T02:19:13.066Z,2.70
2023-05-05T02:20:17.079Z,2.60
2023-05-05T02:21:20.662Z,2.50
2023-05-05T02:22:23.484Z,2.70
2023-05-05T02:23:26.445Z,2.90
2023-05-05T02:24:30.198Z,2.90
2023-05-05T02:25:40.124Z,2.80
2023-05-05T02:26:45.906Z,3.40
2023-05-05T02:27:53.216Z,2.30
2023-05-05T02:29:05.661Z,2.30
2023-05-05T02:30:11.300Z,2.40
2023-05-05T02:31:16.572Z,2.30
2023-05-05T02:32:34.161Z,2.40
2023-05-05T02:33:38.401Z,2.30
2023-05-05T02:34:44.853Z,2.50
2023-05-05T02:35:51.903Z,2.40
2023-05-05T02:37:00.837Z,2.90
2023-05-05T02:38:09.635Z,2.30
2023-05-05T02:39:24.151Z,2.10
2023-05-05T02:40:30.036Z,2.10
2023-05-05T02:41:36.128Z,2.00
2023-05-05T02:42:46.378Z,2.40
2023-05-05T02:43:51.097Z,2.70
2023-05-05T02:44:59.135Z,2.30
2023-05-05T02:46:02.145Z,2.30
2023-05-05T02:47:05.183Z,2.30
2023-05-05T02:48:10.595Z,2.20
2023-05-05T02:49:15.152Z,2.40
2023-05-05T02:50:18.908Z,2.20
2023-05-05T02:51:28.829Z,2.50
2023-05-05T02:52:34.103Z,2.30
2023-05-05T02:53:37.158Z,2.30
2023-05-05T02:54:40.326Z,2.50
2023-05-05T02:55:55.010Z,2.80
2023-05-05T02:57:01.363Z,2.50
2023-05-05T02:58:07.615Z,2.40
2023-05-05T02:59:21.901Z,2.40
2023-05-05T03:00:52.635Z,2.30
2023-05-05T03:02:27.299Z,2.30
2023-05-05T03:04:15.484Z,2.40
2023-05-05T03:05:24.342Z,2.50
2023-05-05T03:06:29.244Z,2.40
2023-05-05T03:07:39.321Z,2.40
2023-05-05T03:08:52.593Z,2.20
2023-05-05T03:09:57.833Z,2.10
2023-05-05T03:11:06.854Z,2.40
2023-05-05T03:12:16.597Z,2.00
2023-05-05T03:13:37.773Z,1.90
2023-05-05T03:14:44.682Z,2.20
2023-05-05T03:15:52.426Z,2.20
2023-05-05T03:16:57.230Z,1.70
2023-05-05T03:18:02.481Z,2.30
2023-05-05T03:19:08.652Z,2.10
2023-05-05T03:20:12.565Z,2.50
2023-05-05T03:21:16.971Z,2.40
2023-05-05T03:22:19.890Z,1.90
2023-05-05T03:23:23.127Z,2.20
2023-05-05T03:24:29.862Z,2.00
2023-05-05T03:25:50.087Z,2.20
2023-05-05T03:27:01.558Z,2.10
2023-05-05T03:28:08.346Z,2.60
2023-05-05T03:29:12.213Z,2.10
2023-05-05T03:30:15.548Z,2.30
2023-05-05T03:31:23.635Z,1.80
2023-05-05T03:32:30.887Z,2.00
2023-05-05T03:33:33.733Z,2.30
2023-05-05T03:34:37.831Z,1.80
2023-05-05T03:35:41.347Z,2.20
2023-05-05T03:36:45.594Z,2.20
2023-05-05T03:37:49.366Z,1.80
2023-05-05T03:38:52.382Z,1.90
2023-05-05T03:39:55.510Z,2.10
2023-05-05T03:41:02.136Z,2.20
2023-05-05T03:42:05.181Z,2.30
2023-05-05T03:43:08.532Z,2.40
2023-05-05T03:44:11.409Z,1.80
2023-05-05T03:45:14.416Z,1.80
2023-05-05T03:46:17.511Z,2.20
2023-05-05T03:47:20.557Z,2.10
2023-05-05T03:48:23.396Z,2.10
2023-05-05T03:49:26.737Z,1.90
2023-05-05T03:50:30.138Z,2.10
2023-05-05T03:51:32.999Z,2.00
2023-05-05T03:52:36.043Z,2.20
2023-05-05T03:53:39.156Z,2.20
2023-05-05T03:54:43.132Z,2.10
2023-05-05T03:55:46.307Z,2.50
2023-05-05T03:56:49.134Z,3.20
2023-05-05T03:57:51.886Z,2.10
2023-05-05T03:58:54.722Z,2.00
2023-05-05T03:59:57.576Z,1.90
2023-05-05T04:01:00.653Z,2.10
2023-05-05T04:02:03.595Z,2.00
2023-05-05T04:03:06.808Z,1.90
2023-05-05T04:04:10.301Z,2.00
2023-05-05T04:05:13.236Z,2.00
2023-05-05T04:06:16.255Z,1.90
2023-05-05T04:07:19.199Z,1.90
2023-05-05T04:08:22.081Z,1.90
2023-05-05T04:09:24.904Z,2.70
2023-05-05T04:10:28.181Z,2.00
2023-05-05T04:11:31.358Z,2.00
2023-05-05T04:12:34.243Z,1.80
2023-05-05T04:13:37.108Z,1.70
2023-05-05T04:14:39.868Z,2.20
2023-05-05T04:15:46.585Z,1.80
2023-05-05T04:16:50.053Z,1.90
2023-05-05T04:17:52.948Z,2.00
2023-05-05T04:18:55.864Z,1.90
2023-05-05T04:19:58.787Z,1.80
2023-05-05T04:21:01.770Z,1.80
2023-05-05T04:22:04.662Z,1.70
2023-05-05T04:23:07.545Z,1.90
2023-05-05T04:24:10.547Z,1.70
2023-05-05T04:25:13.381Z,1.90
2023-05-05T04:26:16.491Z,1.70
2023-05-05T04:27:19.473Z,2.30
2023-05-05T04:28:22.304Z,1.70
2023-05-05T04:29:25.277Z,2.40
2023-05-05T04:30:28.281Z,1.90
2023-05-05T04:31:32.100Z,2.50
2023-05-05T04:32:35.869Z,2.10
2023-05-05T04:33:38.847Z,2.10
2023-05-05T04:34:41.848Z,2.30
2023-05-05T04:35:44.737Z,1.90
2023-05-05T04:36:47.775Z,2.10
2023-05-05T04:37:51.131Z,1.80
2023-05-05T04:38:54.023Z,1.70
2023-05-05T04:39:57.014Z,2.20
2023-05-05T04:41:00.082Z,2.10
2023-05-05T04:42:03.267Z,1.90
2023-05-05T04:43:07.582Z,1.70
2023-05-05T04:44:10.476Z,1.70
2023-05-05T04:45:13.631Z,1.90
2023-05-05T04:46:17.013Z,2.20
2023-05-05T04:47:19.969Z,1.80
2023-05-05T04:48:23.356Z,2.50
2023-05-05T04:49:28.867Z,1.90
2023-05-05T04:50:32.367Z,2.60
2023-05-05T04:51:35.249Z,1.80
2023-05-05T04:52:38.156Z,1.80
2023-05-05T04:53:40.944Z,1.70
2023-05-05T04:54:43.994Z,1.80
2023-05-05T04:55:46.831Z,2.00
2023-05-05T04:56:50.339Z,2.00
2023-05-05T04:59:12.217Z,2.00
2023-05-05T05:02:45.523Z,2.00
2023-05-05T05:03:57.100Z,1.70
2023-05-05T05:05:11.524Z,1.80
2023-05-05T05:06:14.884Z,2.10
2023-05-05T05:07:18.047Z,2.10
2023-05-05T05:08:21.059Z,1.60
2023-05-05T05:09:23.888Z,2.00
2023-05-05T05:10:26.974Z,1.70
2023-05-05T05:11:29.868Z,2.20
2023-05-05T05:12:32.725Z,1.90
2023-05-05T05:13:35.568Z,2.00
2023-05-05T05:14:38.952Z,1.80
2023-05-05T05:15:42.171Z,2.00
2023-05-05T05:16:45.577Z,1.70
2023-05-05T05:17:48.620Z,2.30
2023-05-05T05:18:51.432Z,2.00
2023-05-05T05:19:55.430Z,1.90
2023-05-05T05:20:58.628Z,2.10
2023-05-05T05:22:01.463Z,1.70
2023-05-05T05:23:05.299Z,1.90
2023-05-05T05:24:11.609Z,1.80
2023-05-05T05:25:14.692Z,2.20
2023-05-05T05:26:17.882Z,1.90
2023-05-05T05:27:20.781Z,2.20
2023-05-05T05:28:24.401Z,2.80
2023-05-05T05:29:30.891Z,2.30
2023-05-05T05:30:34.579Z,2.10
2023-05-05T05:31:40.090Z,2.30
2023-05-05T05:32:43.043Z,2.20
2023-05-05T05:33:46.209Z,2.50
2023-05-05T05:34:49.468Z,2.30
2023-05-05T05:35:52.622Z,2.40
2023-05-05T05:36:56.624Z,2.10
2023-05-05T05:37:59.516Z,2.20
2023-05-05T05:39:02.326Z,2.00
2023-05-05T05:40:06.338Z,2.30
2023-05-05T05:41:09.511Z,2.50
2023-05-05T05:42:13.282Z,2.20
2023-05-05T05:43:16.515Z,2.30
2023-05-05T05:44:19.365Z,2.30
2023-05-05T05:45:22.957Z,2.50
2023-05-05T05:46:25.934Z,2.70
2023-05-05T05:47:29.066Z,2.30
2023-05-05T05:48:31.967Z,2.40
2023-05-05T05:49:34.820Z,2.40
2023-05-05T05:50:37.662Z,2.10
2023-05-05T05:51:40.574Z,2.10
2023-05-05T05:52:43.386Z,2.00
2023-05-05T05:53:46.432Z,1.90
2023-05-05T05:54:49.904Z,2.10
2023-05-05T05:55:52.787Z,1.90
2023-05-05T05:56:55.689Z,2.00
2023-05-05T05:57:58.717Z,1.80
2023-05-05T05:59:02.701Z,2.00
2023-05-05T06:00:06.346Z,2.00
2023-05-05T06:01:15.984Z,1.70
2023-05-05T06:02:20.848Z,1.80
2023-05-05T06:03:24.430Z,1.80
2023-05-05T06:04:27.431Z,1.90
2023-05-05T06:05:31.388Z,1.90
2023-05-05T06:06:34.867Z,1.80
2023-05-05T06:07:37.703Z,2.00
2023-05-05T06:08:40.934Z,2.10
2023-05-05T06:09:43.854Z,1.90
2023-05-05T06:10:48.192Z,1.80
2023-05-05T06:11:53.096Z,1.70
2023-05-05T06:12:57.139Z,1.90
2023-05-05T06:14:00.588Z,2.00
2023-05-05T06:15:03.602Z,1.90
2023-05-05T06:16:06.908Z,2.10
2023-05-05T06:17:09.990Z,1.80
2023-05-05T06:18:13.031Z,2.00
2023-05-05T06:19:16.108Z,2.10
2023-05-05T06:20:19.457Z,1.80
2023-05-05T06:21:22.354Z,2.10
2023-05-05T06:22:25.401Z,2.30
2023-05-05T06:23:28.509Z,2.20
2023-05-05T06:24:35.104Z,2.00
2023-05-05T06:25:37.980Z,1.90
2023-05-05T06:26:40.932Z,2.10
2023-05-05T06:27:43.904Z,2.20
2023-05-05T06:28:46.751Z,2.40
2023-05-05T06:29:49.602Z,2.10
2023-05-05T06:30:52.629Z,2.50
2023-05-05T06:31:55.693Z,3.20
2023-05-05T06:32:58.491Z,2.00
2023-05-05T06:34:01.389Z,2.10
2023-05-05T06:35:05.067Z,2.10
2023-05-05T06:36:08.181Z,2.20
2023-05-05T06:37:11.225Z,2.60
2023-05-05T06:38:13.982Z,2.70
2023-05-05T06:39:17.041Z,2.40
2023-05-05T06:40:19.937Z,2.20
2023-05-05T06:41:22.748Z,2.20
2023-05-05T06:42:25.623Z,2.20
2023-05-05T06:43:29.389Z,2.20
2023-05-05T06:44:36.372Z,2.20
2023-05-05T06:45:40.056Z,1.90
2023-05-05T06:46:43.782Z,2.10
2023-05-05T06:47:47.034Z,1.80
2023-05-05T06:48:50.239Z,1.50
2023-05-05T06:49:53.034Z,1.70
2023-05-05T06:50:56.663Z,2.20
2023-05-05T06:51:59.514Z,1.90
2023-05-05T06:53:02.426Z,1.70
2023-05-05T06:54:05.204Z,2.00
2023-05-05T06:55:08.563Z,2.00
2023-05-05T06:56:11.760Z,2.20
2023-05-05T06:57:14.591Z,2.30
2023-05-05T06:58:17.418Z,2.30
2023-05-05T06:59:20.272Z,2.10
2023-05-05T07:00:23.406Z,2.10
2023-05-05T07:01:26.813Z,2.20
2023-05-05T07:02:29.763Z,2.90
2023-05-05T07:03:32.740Z,2.30
2023-05-05T07:04:35.683Z,2.40
2023-05-05T07:05:38.513Z,2.20
2023-05-05T07:06:41.653Z,1.90
2023-05-05T07:07:57.126Z,2.20
2023-05-05T07:08:59.989Z,2.30
2023-05-05T07:10:02.728Z,2.50
2023-05-05T07:11:05.543Z,2.40
2023-05-05T07:12:08.451Z,2.00
2023-05-05T07:13:11.340Z,1.90
2023-05-05T07:14:14.142Z,2.10
2023-05-05T07:15:28.167Z,2.50
2023-05-05T07:16:34.731Z,2.40
2023-05-05T07:17:37.704Z,2.30
2023-05-05T07:18:40.507Z,1.90
2023-05-05T07:19:44.121Z,2.00
2023-05-05T07:20:46.996Z,2.30
2023-05-05T07:21:49.760Z,2.30
2023-05-05T07:22:52.708Z,2.40
2023-05-05T07:23:55.606Z,2.20
2023-05-05T07:24:58.429Z,2.20
2023-05-05T07:26:01.270Z,2.00
2023-05-05T07:27:04.052Z,2.30
2023-05-05T07:28:07.091Z,2.40
2023-05-05T07:29:09.949Z,2.20
2023-05-05T07:30:15.545Z,2.10
2023-05-05T07:31:22.051Z,2.30
2023-05-05T07:32:24.926Z,2.10
2023-05-05T07:33:27.803Z,2.20
2023-05-05T07:34:32.791Z,2.60
2023-05-05T07:35:35.548Z,2.00
2023-05-05T07:36:38.507Z,2.10
2023-05-05T07:37:41.309Z,2.10
2023-05-05T07:38:44.510Z,2.60
2023-05-05T07:39:48.671Z,2.30
2023-05-05T07:40:51.480Z,2.20
2023-05-05T07:41:54.306Z,2.50
2023-05-05T07:42:57.039Z,2.70
2023-05-05T07:44:01.331Z,2.00
2023-05-05T07:45:05.354Z,2.00
2023-05-05T07:46:08.428Z,2.20
2023-05-05T07:47:11.437Z,2.40
2023-05-05T07:48:14.159Z,2.30
2023-05-05T07:49:17.320Z,2.20
2023-05-05T07:50:20.550Z,1.90
2023-05-05T07:51:23.308Z,2.70
2023-05-05T07:52:43.724Z,2.40
2023-05-05T07:53:49.155Z,2.80
2023-05-05T07:54:52.341Z,3.10
2023-05-05T07:55:55.641Z,2.30
2023-05-05T07:56:58.389Z,2.80
2023-05-05T07:58:01.304Z,2.20
2023-05-05T07:59:04.237Z,2.80
2023-05-05T08:00:07.914Z,2.50
2023-05-05T08:01:16.974Z,2.30
2023-05-05T08:02:19.957Z,2.20
2023-05-05T08:03:24.870Z,2.70
2023-05-05T08:04:28.020Z,2.30
2023-05-05T08:05:31.196Z,2.60
2023-05-05T08:06:34.083Z,2.90
2023-05-05T08:07:40.928Z,2.40
2023-05-05T08:08:43.903Z,2.50
2023-05-05T08:09:46.646Z,2.50
2023-05-05T08:10:50.449Z,2.40
2023-05-05T08:11:53.178Z,2.50
2023-05-05T08:12:55.964Z,2.10
2023-05-05T08:13:58.751Z,2.50
2023-05-05T08:15:01.600Z,3.20
2023-05-05T08:16:04.841Z,2.20
2023-05-05T08:17:07.699Z,2.40
2023-05-05T08:18:10.480Z,2.80
2023-05-05T08:19:27.560Z,2.50
2023-05-05T08:20:32.114Z,2.40
2023-05-05T08:21:35.432Z,2.40
2023-05-05T08:22:38.265Z,2.60
2023-05-05T08:23:41.127Z,2.40
2023-05-05T08:24:43.872Z,2.20
2023-05-05T08:25:46.728Z,2.30
2023-05-05T08:26:49.666Z,2.40
2023-05-05T08:27:52.555Z,2.30
2023-05-05T08:28:56.772Z,2.30
2023-05-05T08:29:59.627Z,2.10
2023-05-05T08:31:06.830Z,2.70
2023-05-05T08:32:09.856Z,2.40
2023-05-05T08:33:12.813Z,2.40
2023-05-05T08:34:15.990Z,2.30
2023-05-05T08:35:18.857Z,2.40
2023-05-05T08:36:21.879Z,2.80
2023-05-05T08:37:24.893Z,2.60
2023-05-05T08:38:27.818Z,2.70
2023-05-05T08:39:30.769Z,2.60
2023-05-05T08:40:37.001Z,2.50
2023-05-05T08:41:39.841Z,2.20
2023-05-05T08:42:43.126Z,2.40
2023-05-05T08:43:48.115Z,2.70
2023-05-05T08:44:51.526Z,2.40
2023-05-05T08:45:56.270Z,2.50
2023-05-05T08:47:00.810Z,2.60
2023-05-05T08:48:05.459Z,2.60
2023-05-05T08:49:15.463Z,2.30
2023-05-05T08:50:19.957Z,2.90
2023-05-05T08:51:28.366Z,2.50
2023-05-05T08:52:38.876Z,2.10
2023-05-05T08:54:57.163Z,2.20
2023-05-05T08:56:00.914Z,1.90
2023-05-05T08:57:10.463Z,2.40
2023-05-05T08:58:14.494Z,2.10
2023-05-05T08:59:19.016Z,2.20
2023-05-05T09:00:23.476Z,2.50
2023-05-05T09:01:27.255Z,2.40
2023-05-05T09:02:31.282Z,2.10
2023-05-05T09:03:37.261Z,2.00
2023-05-05T09:04:40.811Z,2.10
2023-05-05T09:05:44.416Z,2.20
2023-05-05T09:06:47.403Z,2.20
2023-05-05T09:07:51.041Z,2.00
2023-05-05T09:08:55.132Z,2.10
2023-05-05T09:10:00.701Z,1.80
2023-05-05T09:11:03.537Z,2.00
2023-05-05T09:12:06.598Z,2.30
2023-05-05T09:13:09.517Z,2.10
2023-05-05T09:14:13.008Z,2.00
2023-05-05T09:15:15.987Z,2.10
2023-05-05T09:16:18.793Z,1.80
2023-05-05T09:17:23.927Z,2.60
2023-05-05T09:18:27.225Z,2.10
2023-05-05T09:19:29.971Z,2.20
2023-05-05T09:20:37.298Z,2.40
2023-05-05T09:21:49.694Z,2.00
2023-05-05T09:22:53.210Z,1.90
2023-05-05T09:24:11.841Z,2.30
2023-05-05T09:25:16.535Z,2.10
2023-05-05T09:26:19.516Z,2.10
2023-05-05T09:27:23.374Z,1.90
2023-05-05T09:28:26.988Z,2.00
2023-05-05T09:29:29.944Z,2.40
2023-05-05T09:30:33.830Z,2.20
2023-05-05T09:31:37.775Z,1.90
2023-05-05T09:32:44.717Z,1.80
2023-05-05T09:33:47.729Z,2.10
2023-05-05T09:35:01.236Z,2.30
2023-05-05T09:36:04.099Z,2.30
2023-05-05T09:37:07.241Z,2.20
2023-05-05T09:38:13.174Z,1.80
2023-05-05T09:39:20.170Z,1.80
2023-05-05T09:40:23.118Z,2.10
2023-05-05T09:41:40.277Z,2.20
2023-05-05T09:42:44.675Z,2.50
2023-05-05T09:43:51.934Z,2.30
2023-05-05T09:44:59.121Z,2.60
2023-05-05T09:46:07.713Z,1.90
2023-05-05T09:47:25.916Z,1.60
2023-05-05T09:48:32.451Z,1.80
2023-05-05T09:49:36.818Z,2.30
2023-05-05T09:50:44.136Z,2.20
2023-05-05T09:51:48.051Z,2.10
2023-05-05T09:52:57.522Z,1.90
2023-05-05T09:54:00.573Z,2.20
2023-05-05T09:55:03.691Z,2.20
2023-05-05T09:56:07.101Z,1.90
2023-05-05T09:57:26.109Z,2.00
2023-05-05T09:58:30.651Z,2.20
2023-05-05T09:59:33.874Z,2.10
2023-05-05T10:00:39.268Z,1.80
2023-05-05T10:01:43.823Z,1.70
2023-05-05T10:02:47.158Z,2.00
2023-05-05T10:03:52.219Z,1.90
2023-05-05T10:05:09.043Z,2.30
2023-05-05T10:06:12.015Z,2.00
2023-05-05T10:07:27.442Z,1.90
2023-05-05T10:08:33.588Z,2.30
2023-05-05T10:09:36.484Z,2.10
2023-05-05T10:10:50.871Z,2.00
2023-05-05T10:11:56.660Z,2.00
2023-05-05T10:12:59.567Z,2.00
2023-05-05T10:14:04.750Z,2.10
2023-05-05T10:15:09.052Z,2.30
2023-05-05T10:16:13.378Z,2.10
2023-05-05T10:17:17.428Z,1.90
2023-05-05T10:18:23.311Z,2.40
2023-05-05T10:19:29.497Z,1.90
2023-05-05T10:20:33.449Z,2.30
2023-05-05T10:21:42.088Z,2.20
2023-05-05T10:22:55.968Z,1.90
2023-05-05T10:24:09.481Z,2.80
2023-05-05T10:25:16.004Z,2.20
2023-05-05T10:26:20.048Z,2.00
2023-05-05T10:27:24.662Z,2.40
2023-05-05T10:28:32.769Z,2.40
2023-05-05T10:30:01.520Z,2.50
2023-05-05T10:31:16.420Z,2.50
2023-05-05T10:33:45.281Z,2.00
2023-05-05T10:34:57.573Z,2.50
2023-05-05T10:36:02.654Z,2.20
2023-05-05T10:37:06.979Z,1.80
2023-05-05T10:38:12.898Z,1.70
2023-05-05T10:39:19.890Z,1.80
2023-05-05T10:40:22.802Z,1.40
2023-05-05T10:41:26.901Z,2.00
2023-05-05T10:42:30.074Z,2.00
2023-05-05T10:43:33.737Z,2.00
2023-05-05T10:44:36.736Z,1.90
2023-05-05T10:45:40.184Z,2.10
2023-05-05T10:46:44.373Z,1.80
2023-05-05T10:47:48.182Z,1.80
2023-05-05T10:48:56.841Z,1.80
2023-05-05T10:50:27.020Z,1.90
2023-05-05T10:51:50.086Z,1.70
2023-05-05T10:53:10.953Z,1.80
2023-05-05T10:54:39.808Z,1.70
2023-05-05T10:55:54.935Z,1.90
2023-05-05T10:57:04.942Z,1.90
2023-05-05T10:58:07.834Z,2.00
2023-05-05T10:59:47.574Z,1.60
2023-05-05T11:00:51.251Z,2.00
2023-05-05T11:01:54.245Z,2.20
2023-05-05T11:03:18.706Z,2.10
2023-05-05T11:04:23.534Z,1.60
2023-05-05T11:05:26.781Z,1.60
2023-05-05T11:06:30.830Z,1.60
2023-05-05T11:07:34.556Z,1.60
2023-05-05T11:08:39.694Z,1.90
2023-05-05T11:10:01.621Z,1.80
2023-05-05T11:11:06.107Z,1.70
2023-05-05T11:12:09.165Z,1.70
2023-05-05T11:13:15.054Z,1.80
2023-05-05T11:14:24.093Z,1.80
2023-05-05T11:15:29.988Z,2.00
2023-05-05T11:16:44.982Z,1.40
2023-05-05T11:17:48.337Z,1.80
2023-05-05T11:18:51.249Z,1.80
2023-05-05T11:19:54.116Z,2.10
2023-05-05T11:20:59.809Z,1.90
2023-05-05T11:22:03.254Z,1.60
2023-05-05T11:23:06.061Z,2.70
2023-05-05T11:24:27.704Z,1.80
2023-05-05T11:25:37.373Z,1.70
2023-05-05T11:26:53.758Z,2.20
2023-05-05T11:28:18.355Z,1.70
2023-05-05T11:29:21.422Z,1.80
2023-05-05T11:30:24.238Z,1.70
2023-05-05T11:31:27.816Z,1.90
2023-05-05T11:32:30.854Z,2.00
2023-05-05T11:33:37.794Z,1.70
2023-05-05T11:34:49.848Z,1.60
2023-05-05T11:35:56.028Z,1.50
2023-05-05T11:37:07.395Z,1.70
2023-05-05T11:38:10.431Z,1.40
2023-05-05T11:39:27.476Z,1.40
2023-05-05T11:40:35.023Z,1.70
2023-05-05T11:42:07.983Z,1.50
2023-05-05T11:43:13.211Z,1.90
2023-05-05T11:44:17.378Z,2.20
2023-05-05T11:45:25.027Z,1.40
2023-05-05T11:46:27.890Z,1.40
2023-05-05T11:47:32.073Z,1.50
2023-05-05T11:48:47.106Z,1.10
2023-05-05T11:49:50.231Z,1.30
2023-05-05T11:50:54.017Z,1.50
2023-05-05T11:52:00.975Z,1.40
2023-05-05T11:53:04.678Z,1.20
2023-05-05T11:54:07.543Z,1.60
2023-05-05T11:55:10.982Z,1.40
2023-05-05T11:56:19.225Z,1.50
2023-05-05T11:57:28.372Z,1.50
2023-05-05T11:58:31.168Z,1.70
2023-05-05T12:00:08.126Z,1.40
2023-05-05T12:01:11.799Z,1.30
2023-05-05T12:02:21.254Z,1.50
2023-05-05T12:03:24.463Z,1.70
2023-05-05T12:04:27.490Z,1.40
2023-05-05T12:05:30.826Z,1.10
2023-05-05T12:06:34.101Z,1.10
2023-05-05T12:07:37.068Z,1.30
2023-05-05T12:08:41.160Z,1.50
2023-05-05T12:09:45.866Z,1.20
2023-05-05T12:10:48.681Z,1.20
2023-05-05T12:11:56.960Z,1.30
2023-05-05T12:13:00.060Z,1.30
2023-05-05T12:14:10.499Z,1.30
2023-05-05T12:16:16.693Z,1.50
2023-05-05T12:17:23.423Z,1.90
2023-05-05T12:18:26.594Z,1.50
2023-05-05T12:19:33.112Z,1.10
2023-05-05T12:20:36.634Z,1.40
2023-05-05T12:21:39.552Z,1.30
2023-05-05T12:22:42.474Z,1.30
2023-05-05T12:23:45.796Z,1.60
2023-05-05T12:24:55.109Z,1.40
2023-05-05T12:25:57.956Z,1.60
2023-05-05T12:27:11.123Z,1.20
2023-05-05T12:28:13.983Z,1.40
2023-05-05T12:29:29.726Z,1.10
2023-05-05T12:30:32.621Z,1.10
2023-05-05T12:31:38.933Z,1.00
2023-05-05T12:32:42.314Z,1.40
2023-05-05T12:33:45.879Z,1.30
2023-05-05T12:34:50.644Z,1.30
2023-05-05T12:35:53.564Z,1.30
2023-05-05T12:36:56.405Z,1.10
2023-05-05T12:37:59.307Z,1.90
2023-05-05T12:39:03.645Z,1.10
2023-05-05T12:40:08.983Z,1.40
2023-05-05T12:41:18.041Z,1.10
2023-05-05T12:42:22.141Z,1.30
2023-05-05T12:43:29.057Z,1.30
2023-05-05T12:44:39.257Z,1.60
2023-05-05T12:45:42.753Z,1.20
2023-05-05T12:46:46.836Z,0.90
2023-05-05T12:47:49.675Z,1.10
2023-05-05T12:49:04.777Z,1.50
2023-05-05T12:50:08.228Z,1.30
2023-05-05T12:51:16.863Z,1.20
2023-05-05T12:52:20.854Z,0.90
2023-05-05T12:53:25.016Z,1.70
2023-05-05T12:54:30.542Z,1.20
2023-05-05T12:55:37.808Z,0.90
2023-05-05T12:56:42.986Z,1.30
2023-05-05T12:58:02.064Z,1.40
2023-05-05T12:59:07.676Z,1.30
2023-05-05T13:00:15.959Z,1.10
2023-05-05T13:01:18.864Z,1.20
2023-05-05T13:02:33.282Z,1.20
2023-05-05T13:03:36.159Z,1.10
2023-05-05T13:04:53.023Z,1.10
2023-05-05T13:05:56.047Z,1.40
2023-05-05T13:07:11.648Z,1.20
2023-05-05T13:08:14.725Z,1.20
2023-05-05T13:09:28.326Z,1.10
2023-05-05T13:10:31.423Z,1.10
2023-05-05T13:11:35.442Z,1.30
2023-05-05T13:12:38.310Z,1.70
2023-05-05T13:13:42.305Z,1.20
2023-05-05T13:14:46.521Z,1.40
2023-05-05T13:15:49.423Z,1.20
2023-05-05T13:16:52.870Z,1.00
2023-05-05T13:18:02.794Z,1.20
2023-05-05T13:19:06.205Z,1.50
2023-05-05T13:20:10.823Z,1.20
2023-05-05T13:21:13.784Z,1.20
2023-05-05T13:22:16.734Z,1.00
2023-05-05T13:23:19.950Z,1.40
2023-05-05T13:24:31.674Z,1.40
2023-05-05T13:25:45.610Z,1.10
2023-05-05T13:26:48.839Z,1.20
2023-05-05T13:27:51.604Z,1.10
2023-05-05T13:28:54.984Z,1.10
2023-05-05T13:29:57.859Z,1.30
2023-05-05T13:31:00.725Z,1.40
2023-05-05T13:32:03.575Z,0.70
2023-05-05T13:33:06.466Z,1.10
2023-05-05T13:34:09.255Z,1.10
2023-05-05T13:35:14.642Z,1.10
2023-05-05T13:36:18.849Z,1.30
2023-05-05T13:37:21.861Z,1.10
2023-05-05T13:38:24.648Z,1.40
2023-05-05T13:39:27.448Z,1.60
2023-05-05T13:40:30.520Z,1.00
2023-05-05T13:41:33.325Z,0.90
2023-05-05T13:42:36.066Z,1.20
2023-05-05T13:43:38.865Z,1.40
2023-05-05T13:44:41.634Z,0.90
2023-05-05T13:45:44.725Z,1.10
2023-05-05T13:46:47.618Z,1.20
2023-05-05T13:47:51.031Z,0.90
2023-05-05T13:48:56.678Z,1.00
2023-05-05T13:49:59.719Z,1.20
2023-05-05T13:51:02.707Z,1.00
2023-05-05T13:52:06.039Z,1.40
2023-05-05T13:53:08.860Z,1.50
2023-05-05T13:54:11.674Z,1.00
2023-05-05T13:55:14.455Z,1.10
2023-05-05T13:56:18.345Z,1.00
2023-05-05T13:57:21.287Z,1.70
2023-05-05T13:58:24.205Z,1.40
2023-05-05T13:59:27.392Z,1.20
2023-05-05T14:00:30.991Z,1.20
2023-05-05T14:01:34.059Z,1.10
2023-05-05T14:02:37.070Z,1.20
2023-05-05T14:03:39.966Z,1.50
2023-05-05T14:04:42.906Z,1.30
2023-05-05T14:05:46.227Z,1.20
2023-05-05T14:06:49.242Z,1.20
2023-05-05T14:07:52.358Z,0.90
2023-05-05T14:08:55.156Z,1.10
2023-05-05T14:09:57.947Z,1.10
2023-05-05T14:11:01.987Z,1.10
2023-05-05T14:12:05.253Z,1.00
2023-05-05T14:13:08.160Z,1.40
2023-05-05T14:14:11.431Z,1.20
2023-05-05T14:15:14.239Z,1.00
2023-05-05T14:16:17.288Z,1.30
2023-05-05T14:17:20.448Z,1.30
2023-05-05T14:18:23.232Z,1.40
2023-05-05T14:19:25.979Z,1.80
2023-05-05T14:20:29.018Z,1.10
2023-05-05T14:21:32.579Z,1.20
2023-05-05T14:22:35.577Z,1.20
2023-05-05T14:23:38.448Z,1.10
2023-05-05T14:24:41.344Z,1.10
2023-05-05T14:25:44.115Z,1.30
2023-05-05T14:26:46.979Z,0.90
2023-05-05T14:27:50.031Z,1.30
2023-05-05T14:28:52.882Z,1.00
2023-05-05T14:29:55.775Z,1.30
2023-05-05T14:30:58.506Z,1.30
2023-05-05T14:32:01.381Z,1.30
2023-05-05T14:33:04.457Z,1.20
2023-05-05T14:34:07.298Z,1.40
2023-05-05T14:35:10.197Z,1.20
2023-05-05T14:36:14.201Z,1.50
2023-05-05T14:37:17.098Z,1.30
2023-05-05T14:38:20.420Z,1.10
2023-05-05T14:39:23.823Z,1.30
2023-05-05T14:40:26.709Z,1.50
2023-05-05T14:41:29.487Z,1.10
2023-05-05T14:42:32.331Z,1.50